Huvudsida
METAR-TAF:

METAR-TAF

Flygplatser :

Conakry, Guinea

Conakry International Airport

latitud: 09-34N, longitud: 013-37W, höjd: 26 m

Aktuellt väderrapport

Denna rapport gjordes för 3 timmar och 52 minuter sedan, klockan 01:00 UTC
Vind 6 kt från väst
Temperatur 24°C
Fuktighet 83%
Tryck 1009 hPa
Sikt 10 km eller mer
Spridda moln på en höjd av 1500 ft

METAR: GUCY 230100Z 27006KT 9999 SCT015 24/21 Q1009 NOSIG

Tid: 04:52 (04:52 UTC)

Väderprognos

Denna rapport gjordes för 5 timmar och 52 minuter sedan, klockan 23:00 UTC
Prognos gäller från 23 kl. 00 UTC till 24 kl. 06 UTC
Vind 6 kt från väst
Sikt: 5000 m
Spridda moln på en höjd av 12000 ft
torrdis
Sannolikhet 30% :
Temporärt
från 23 kl. 04 UTC till 23 kl. 09 UTC
Vind 2 kt varierande vindriktning
Sikt: 3000 m
Spridda moln på en höjd av 1500 ft
Spridda moln på en höjd av 11000 ft
fuktdis

TAF: GUCY 222300Z 2300/2406 26006KT 5000 HZ SCT120 PROB30 TEMPO 2304/2309 VRB02KT 3000 BR SCT015 SCT110

Aktuella väderrapporter och prognoser från 4000 flygplatser (METAR- och TAF-rapporter).

De tillgängliga stationerna syns som gula och röda prickar på kartan.

För musen över prickarna för att se namnen på stationerna.

Klicka sedan för att få väderrapporter och prognoser.

För att ändra kartan: Klicka på de gröna knapparna med ett svart kors på för att zooma in; den gröna knappen med ett streck på för att zooma ut; eller på de gröna pilarna för angränsande kartor.


METAR-TAF: